createdAt,value
2016-02-25T00:00:18.789Z,1000.58
2016-02-25T00:01:18.793Z,1000.59
2016-02-25T00:02:18.811Z,1000.56
2016-02-25T00:03:18.828Z,1000.55
2016-02-25T00:04:18.848Z,1000.58
2016-02-25T00:05:18.850Z,1000.6
2016-02-25T00:06:18.868Z,1000.59
2016-02-25T00:07:18.886Z,1000.57
2016-02-25T00:08:18.905Z,1000.55
2016-02-25T00:09:18.923Z,1000.56
2016-02-25T00:10:18.925Z,1000.52
2016-02-25T00:11:18.945Z,1000.55
2016-02-25T00:12:18.963Z,1000.49
2016-02-25T00:13:18.996Z,1000.48
2016-02-25T00:14:19.000Z,1000.51
2016-02-25T00:15:19.002Z,1000.5
2016-02-25T00:16:19.020Z,1000.44
2016-02-25T00:17:19.039Z,1000.45
2016-02-25T00:18:19.057Z,1000.43
2016-02-25T00:19:19.075Z,1000.42
2016-02-25T00:20:19.093Z,1000.4
2016-02-25T00:21:19.097Z,1000.42
2016-02-25T00:22:19.115Z,1000.44
2016-02-25T00:23:19.132Z,1000.4
2016-02-25T00:24:19.151Z,1000.41
2016-02-25T00:25:19.154Z,1000.45
2016-02-25T00:26:19.188Z,1000.46
2016-02-25T00:27:19.191Z,1000.43
2016-02-25T00:28:19.209Z,1000.48
2016-02-25T00:29:19.226Z,1000.45
2016-02-25T00:30:19.229Z,1000.45
2016-02-25T00:31:19.248Z,1000.46
2016-02-25T00:32:19.267Z,1000.45
2016-02-25T00:33:19.284Z,1000.44
2016-02-25T00:34:19.303Z,1000.44
2016-02-25T00:35:19.306Z,1000.43
2016-02-25T00:36:19.323Z,1000.46
2016-02-25T00:37:19.343Z,1000.42
2016-02-25T00:38:19.361Z,1000.42
2016-02-25T00:39:19.379Z,1000.43
2016-02-25T00:40:19.381Z,1000.43
2016-02-25T00:41:19.400Z,1000.43
2016-02-25T00:42:19.419Z,1000.41
2016-02-25T00:43:19.436Z,1000.39
2016-02-25T00:44:19.439Z,1000.42
2016-02-25T00:45:19.458Z,1000.37
2016-02-25T00:46:19.475Z,1000.37
2016-02-25T00:47:19.495Z,1000.36
2016-02-25T00:48:19.513Z,1000.35
2016-02-25T00:49:19.531Z,1000.34
2016-02-25T00:50:19.533Z,1000.38
2016-02-25T00:51:19.552Z,1000.33
2016-02-25T00:52:19.571Z,1000.35
2016-02-25T00:53:19.588Z,1000.34
2016-02-25T00:54:19.607Z,1000.37
2016-02-25T00:55:19.609Z,1000.33
2016-02-25T00:56:19.627Z,1000.31
2016-02-25T00:57:19.646Z,1000.33
2016-02-25T00:58:19.665Z,1000.32
2016-02-25T00:59:32.417Z,1000.3
2016-02-25T01:00:19.685Z,1000.25
2016-02-25T01:01:19.704Z,1000.28
2016-02-25T01:02:19.722Z,1000.25
2016-02-25T01:03:19.725Z,1000.24
2016-02-25T01:04:19.743Z,1000.21
2016-02-25T01:05:19.761Z,1000.18
2016-02-25T01:06:19.779Z,1000.2
2016-02-25T01:07:20.001Z,1000.18
2016-02-25T01:08:19.798Z,1000.16
2016-02-25T01:09:19.817Z,1000.16
2016-02-25T01:10:19.850Z,1000.15
2016-02-25T01:11:19.853Z,1000.11
2016-02-25T01:12:19.856Z,1000.12
2016-02-25T01:13:19.874Z,1000.11
2016-02-25T01:14:19.892Z,1000.09
2016-02-25T01:15:19.911Z,1000.04
2016-02-25T01:16:19.928Z,1000.03
2016-02-25T01:17:19.931Z,1000.02
2016-02-25T01:18:19.950Z,999.97
2016-02-25T01:19:19.968Z,999.99
2016-02-25T01:20:19.986Z,999.96
2016-02-25T01:21:19.989Z,999.93
2016-02-25T01:22:20.055Z,999.93
2016-02-25T01:23:20.026Z,999.92
2016-02-25T01:24:20.044Z,999.93
2016-02-25T01:25:20.063Z,999.91
2016-02-25T01:26:20.065Z,999.94
2016-02-25T01:27:20.083Z,999.92
2016-02-25T01:28:20.102Z,999.88
2016-02-25T01:29:20.121Z,999.93
2016-02-25T01:30:20.123Z,999.84
2016-02-25T01:31:20.141Z,999.82
2016-02-25T01:32:20.159Z,999.81
2016-02-25T01:33:20.178Z,999.84
2016-02-25T01:34:20.181Z,999.81
2016-02-25T01:35:20.199Z,999.81
2016-02-25T01:36:20.217Z,999.78
2016-02-25T01:37:20.235Z,999.8
2016-02-25T01:38:20.254Z,999.79
2016-02-25T01:39:20.256Z,999.75
2016-02-25T01:40:20.275Z,999.75
2016-02-25T01:41:20.293Z,999.76
2016-02-25T01:42:20.312Z,999.77
2016-02-25T01:43:20.314Z,999.78
2016-02-25T01:44:20.333Z,999.76
2016-02-25T01:45:20.351Z,999.77
2016-02-25T01:46:20.370Z,999.72
2016-02-25T01:47:20.372Z,999.71
2016-02-25T01:48:20.389Z,999.69
2016-02-25T01:49:20.408Z,999.65
2016-02-25T01:50:20.427Z,999.66
2016-02-25T01:51:20.445Z,999.63
2016-02-25T01:52:20.448Z,999.65
2016-02-25T01:53:20.466Z,999.67
2016-02-25T01:54:20.485Z,999.62
2016-02-25T01:55:20.502Z,999.64
2016-02-25T01:56:20.505Z,999.66
2016-02-25T01:57:20.524Z,999.61
2016-02-25T01:58:20.541Z,999.6
2016-02-25T01:59:20.560Z,999.62
2016-02-25T02:00:20.563Z,999.55
2016-02-25T02:01:20.581Z,999.54
2016-02-25T02:02:20.599Z,999.54
2016-02-25T02:03:20.618Z,999.5
2016-02-25T02:04:20.637Z,999.5
2016-02-25T02:05:20.640Z,999.52
2016-02-25T02:06:20.681Z,999.48
2016-02-25T02:07:20.932Z,999.49
2016-02-25T02:08:20.687Z,999.41
2016-02-25T02:09:20.726Z,999.41
2016-02-25T02:10:20.722Z,999.46
2016-02-25T02:11:20.725Z,999.4
2016-02-25T02:12:20.742Z,999.4
2016-02-25T02:13:20.761Z,999.41
2016-02-25T02:14:20.779Z,999.42
2016-02-25T02:15:20.797Z,999.43
2016-02-25T02:16:20.800Z,999.38
2016-02-25T02:17:20.819Z,999.35
2016-02-25T02:18:20.837Z,999.35
2016-02-25T02:19:20.840Z,999.36
2016-02-25T02:20:20.889Z,999.35
2016-02-25T02:21:20.877Z,999.33
2016-02-25T02:22:20.895Z,999.34
2016-02-25T02:23:20.897Z,999.26
2016-02-25T02:24:20.915Z,999.3
2016-02-25T02:25:20.934Z,999.28
2016-02-25T02:26:20.952Z,999.29
2016-02-25T02:27:20.954Z,999.27
2016-02-25T02:28:20.973Z,999.22
2016-02-25T02:29:20.992Z,999.26
2016-02-25T02:30:21.010Z,999.28
2016-02-25T02:31:21.028Z,999.2
2016-02-25T02:32:21.031Z,999.21
2016-02-25T02:33:21.049Z,999.21
2016-02-25T02:34:21.068Z,999.18
2016-02-25T02:35:21.086Z,999.18
2016-02-25T02:36:21.089Z,999.1
2016-02-25T02:37:21.107Z,999.12
2016-02-25T02:38:21.125Z,999.1
2016-02-25T02:39:21.144Z,999.08
2016-02-25T02:40:21.147Z,999.12
2016-02-25T02:41:21.164Z,999.07
2016-02-25T02:42:21.183Z,999.06
2016-02-25T02:43:21.186Z,999.1
2016-02-25T02:44:21.204Z,999.08
2016-02-25T02:45:21.222Z,999.09
2016-02-25T02:46:21.240Z,999.07
2016-02-25T02:47:21.259Z,999.07
2016-02-25T02:48:21.261Z,999.1
2016-02-25T02:49:21.280Z,999.09
2016-02-25T02:50:21.298Z,999.02
2016-02-25T02:51:21.316Z,999.07
2016-02-25T02:52:21.335Z,999.04
2016-02-25T02:53:21.337Z,999.06
2016-02-25T02:54:21.355Z,999.05
2016-02-25T02:55:21.374Z,999.05
2016-02-25T02:56:21.377Z,999.05
2016-02-25T02:57:21.395Z,999
2016-02-25T02:58:21.413Z,999.03
2016-02-25T02:59:21.431Z,999.02
2016-02-25T03:00:21.434Z,998.98
2016-02-25T03:01:21.452Z,999.01
2016-02-25T03:02:21.470Z,998.97
2016-02-25T03:03:21.489Z,999.01
2016-02-25T03:04:21.492Z,998.99
2016-02-25T03:05:21.514Z,998.99
2016-02-25T03:06:21.518Z,998.98
2016-02-25T03:07:21.536Z,998.95
2016-02-25T03:08:21.554Z,998.93
2016-02-25T03:09:21.573Z,998.94
2016-02-25T03:10:21.591Z,998.91
2016-02-25T03:11:21.594Z,998.93
2016-02-25T03:12:21.612Z,998.9
2016-02-25T03:13:21.630Z,998.94
2016-02-25T03:14:21.633Z,998.93
2016-02-25T03:15:21.651Z,998.92
2016-02-25T03:16:21.670Z,998.93
2016-02-25T03:17:21.688Z,998.92
2016-02-25T03:18:21.691Z,998.92
2016-02-25T03:19:21.709Z,998.91
2016-02-25T03:20:21.727Z,998.92
2016-02-25T03:21:21.746Z,998.93
2016-02-25T03:22:21.748Z,998.95
2016-02-25T03:23:21.767Z,998.94
2016-02-25T03:24:21.785Z,998.93
2016-02-25T03:25:21.804Z,998.93
2016-02-25T03:26:21.806Z,998.93
2016-02-25T03:27:21.840Z,998.86
2016-02-25T03:28:21.842Z,998.92
2016-02-25T03:29:21.861Z,998.86
2016-02-25T03:30:21.863Z,998.89
2016-02-25T03:31:21.882Z,998.91
2016-02-25T03:32:21.900Z,998.85
2016-02-25T03:33:21.918Z,998.88
2016-02-25T03:34:21.921Z,998.85
2016-02-25T03:35:21.940Z,998.88
2016-02-25T03:36:21.958Z,998.87
2016-02-25T03:37:21.976Z,998.85
2016-02-25T03:38:21.979Z,998.87
2016-02-25T03:39:21.997Z,998.82
2016-02-25T03:40:22.015Z,998.82
2016-02-25T03:41:22.018Z,998.86
2016-02-25T03:42:22.036Z,998.85
2016-02-25T03:43:22.055Z,998.88
2016-02-25T03:44:22.073Z,998.88
2016-02-25T03:45:22.108Z,998.9
2016-02-25T03:46:22.094Z,998.85
2016-02-25T03:47:22.112Z,998.89
2016-02-25T03:48:22.130Z,998.85
2016-02-25T03:49:22.133Z,998.86
2016-02-25T03:50:22.152Z,998.79
2016-02-25T03:51:22.170Z,998.79
2016-02-25T03:52:22.173Z,998.75
2016-02-25T03:53:22.190Z,998.77
2016-02-25T03:54:22.210Z,998.77
2016-02-25T03:55:22.227Z,998.78
2016-02-25T03:56:22.246Z,998.79
2016-02-25T03:57:22.248Z,998.8
2016-02-25T03:58:22.267Z,998.79
2016-02-25T03:59:22.285Z,998.82
2016-02-25T04:00:22.303Z,998.77
2016-02-25T04:01:22.306Z,998.8
2016-02-25T04:02:22.325Z,998.78
2016-02-25T04:03:22.343Z,998.79
2016-02-25T04:04:22.345Z,998.84
2016-02-25T04:05:22.367Z,998.81
2016-02-25T04:06:22.384Z,998.79
2016-02-25T04:07:22.404Z,998.81
2016-02-25T04:08:22.406Z,998.8
2016-02-25T04:09:22.424Z,998.79
2016-02-25T04:10:22.443Z,998.81
2016-02-25T04:11:22.445Z,998.8
2016-02-25T04:12:22.464Z,998.82
2016-02-25T04:13:22.482Z,998.83
2016-02-25T04:14:22.485Z,998.84
2016-02-25T04:15:22.503Z,998.83
2016-02-25T04:16:22.537Z,998.81
2016-02-25T04:17:22.539Z,998.83
2016-02-25T04:18:22.542Z,998.84
2016-02-25T04:19:22.561Z,998.82
2016-02-25T04:20:22.580Z,998.83
2016-02-25T04:21:22.582Z,998.82
2016-02-25T04:22:22.599Z,998.82
2016-02-25T04:23:22.618Z,998.85
2016-02-25T04:24:22.637Z,998.84
2016-02-25T04:25:22.639Z,998.82
2016-02-25T04:26:22.657Z,998.82
2016-02-25T04:27:22.677Z,998.86
2016-02-25T04:28:22.694Z,998.83
2016-02-25T04:29:22.696Z,998.84
2016-02-25T04:30:22.715Z,998.83
2016-02-25T04:31:22.734Z,998.84
2016-02-25T04:32:22.751Z,998.84
2016-02-25T04:33:22.754Z,998.86
2016-02-25T04:34:22.773Z,998.84
2016-02-25T04:35:22.791Z,998.82
2016-02-25T04:36:22.794Z,998.82
2016-02-25T04:37:22.812Z,998.81
2016-02-25T04:38:22.846Z,998.8
2016-02-25T04:39:22.833Z,998.8
2016-02-25T04:40:22.851Z,998.79
2016-02-25T04:41:22.870Z,998.78
2016-02-25T04:42:22.889Z,998.78
2016-02-25T04:43:22.891Z,998.8
2016-02-25T04:44:22.908Z,998.81
2016-02-25T04:45:22.928Z,998.81
2016-02-25T04:46:22.946Z,998.85
2016-02-25T04:47:22.949Z,998.83
2016-02-25T04:48:22.967Z,998.81
2016-02-25T04:49:22.985Z,998.8
2016-02-25T04:50:22.988Z,998.8
2016-02-25T04:51:23.006Z,998.8
2016-02-25T04:52:23.025Z,998.78
2016-02-25T04:53:23.043Z,998.78
2016-02-25T04:54:23.045Z,998.8
2016-02-25T04:55:23.063Z,998.8
2016-02-25T04:56:23.082Z,998.8
2016-02-25T04:57:23.100Z,998.79
2016-02-25T04:58:23.134Z,998.78
2016-02-25T04:59:23.121Z,998.8
2016-02-25T05:00:23.140Z,998.81
2016-02-25T05:01:23.143Z,998.79
2016-02-25T05:02:23.160Z,998.77
2016-02-25T05:03:23.179Z,998.78
2016-02-25T05:04:23.182Z,998.77
2016-02-25T05:05:23.200Z,998.73
2016-02-25T05:06:23.218Z,998.79
2016-02-25T05:07:23.237Z,998.75
2016-02-25T05:08:23.240Z,998.76
2016-02-25T05:09:23.258Z,998.75
2016-02-25T05:10:23.276Z,998.73
2016-02-25T05:11:23.279Z,998.69
2016-02-25T05:12:23.297Z,998.69
2016-02-25T05:13:23.315Z,998.71
2016-02-25T05:14:23.317Z,998.69
2016-02-25T05:15:23.337Z,998.73
2016-02-25T05:16:23.355Z,998.69
2016-02-25T05:17:23.373Z,998.73
2016-02-25T05:18:23.375Z,998.72
2016-02-25T05:19:23.394Z,998.68
2016-02-25T05:20:23.413Z,998.65
2016-02-25T05:21:23.431Z,998.71
2016-02-25T05:22:23.433Z,998.66
2016-02-25T05:23:23.452Z,998.66
2016-02-25T05:24:23.470Z,998.69
2016-02-25T05:25:23.472Z,998.7
2016-02-25T05:26:23.491Z,998.69
2016-02-25T05:27:23.510Z,998.65
2016-02-25T05:28:23.512Z,998.68
2016-02-25T05:29:23.530Z,998.69
2016-02-25T05:30:23.549Z,998.66
2016-02-25T05:31:23.568Z,998.7
2016-02-25T05:32:23.570Z,998.68
2016-02-25T05:33:23.587Z,998.65
2016-02-25T05:34:23.607Z,998.66
2016-02-25T05:35:23.609Z,998.66
2016-02-25T05:36:23.627Z,998.67
2016-02-25T05:37:23.646Z,998.68
2016-02-25T05:38:23.664Z,998.69
2016-02-25T05:39:23.667Z,998.66
2016-02-25T05:40:23.685Z,998.67
2016-02-25T05:41:23.704Z,998.67
2016-02-25T05:42:23.706Z,998.69
2016-02-25T05:43:23.724Z,998.66
2016-02-25T05:44:23.742Z,998.67
2016-02-25T05:45:23.761Z,998.66
2016-02-25T05:46:23.764Z,998.66
2016-02-25T05:47:23.781Z,998.69
2016-02-25T05:48:23.800Z,998.66
2016-02-25T05:49:23.802Z,998.63
2016-02-25T05:50:23.821Z,998.65
2016-02-25T05:51:23.839Z,998.65
2016-02-25T05:52:23.842Z,998.64
2016-02-25T05:53:23.860Z,998.65
2016-02-25T05:54:23.880Z,998.63
2016-02-25T05:55:23.896Z,998.61
2016-02-25T05:56:23.900Z,998.6
2016-02-25T05:57:23.918Z,998.6
2016-02-25T05:58:23.936Z,998.62
2016-02-25T05:59:23.939Z,998.57
2016-02-25T06:00:23.958Z,998.58
2016-02-25T06:01:23.976Z,998.57
2016-02-25T06:02:23.993Z,998.54
2016-02-25T06:03:23.996Z,998.53
2016-02-25T06:04:24.015Z,998.58
2016-02-25T06:05:24.034Z,998.55
2016-02-25T06:06:24.037Z,998.54
2016-02-25T06:07:24.054Z,998.53
2016-02-25T06:08:24.073Z,998.54
2016-02-25T06:09:24.075Z,998.57
2016-02-25T06:10:24.094Z,998.53
2016-02-25T06:11:24.112Z,998.55
2016-02-25T06:12:24.115Z,998.52
2016-02-25T06:13:24.133Z,998.53
2016-02-25T06:14:24.151Z,998.55
2016-02-25T06:15:24.170Z,998.54
2016-02-25T06:16:24.172Z,998.56
2016-02-25T06:17:24.191Z,998.58
2016-02-25T06:18:24.209Z,998.54
2016-02-25T06:19:24.212Z,998.61
2016-02-25T06:20:24.230Z,998.59
2016-02-25T06:21:24.264Z,998.6
2016-02-25T06:22:24.267Z,998.6
2016-02-25T06:23:24.269Z,998.58
2016-02-25T06:24:24.288Z,998.59
2016-02-25T06:25:24.306Z,998.6
2016-02-25T06:26:24.308Z,998.63
2016-02-25T06:27:24.327Z,998.59
2016-02-25T06:28:24.346Z,998.6
2016-02-25T06:29:24.349Z,998.55
2016-02-25T06:30:24.366Z,998.61
2016-02-25T06:31:24.385Z,998.56
2016-02-25T06:32:24.402Z,998.55
2016-02-25T06:33:24.405Z,998.56
2016-02-25T06:34:24.424Z,998.55
2016-02-25T06:35:24.442Z,998.55
2016-02-25T06:36:24.445Z,998.55
2016-02-25T06:37:24.463Z,998.56
2016-02-25T06:38:24.481Z,998.53
2016-02-25T06:39:24.484Z,998.52
2016-02-25T06:40:24.503Z,998.53
2016-02-25T06:41:24.521Z,998.53
2016-02-25T06:42:24.523Z,998.51
2016-02-25T06:43:24.542Z,998.53
2016-02-25T06:44:24.559Z,998.51
2016-02-25T06:45:24.579Z,998.54
2016-02-25T06:46:24.612Z,998.54
2016-02-25T06:47:24.600Z,998.54
2016-02-25T06:48:24.618Z,998.54
2016-02-25T06:49:24.620Z,998.52
2016-02-25T06:50:24.639Z,998.47
2016-02-25T06:51:24.657Z,998.51
2016-02-25T06:52:24.676Z,998.52
2016-02-25T06:53:24.678Z,998.53
2016-02-25T06:54:24.697Z,998.53
2016-02-25T06:55:24.715Z,998.51
2016-02-25T06:56:24.716Z,998.56
2016-02-25T06:57:24.736Z,998.56
2016-02-25T06:58:24.755Z,998.53
2016-02-25T06:59:24.752Z,998.55
2016-02-25T07:00:24.755Z,998.58
2016-02-25T07:01:24.758Z,998.55
2016-02-25T07:02:24.745Z,998.57
2016-02-25T07:03:24.749Z,998.55
2016-02-25T07:04:24.756Z,998.55
2016-02-25T07:05:24.771Z,998.57
2016-02-25T07:06:24.775Z,998.59
2016-02-25T07:07:24.772Z,998.56
2016-02-25T07:08:24.785Z,998.6
2016-02-25T07:09:24.799Z,998.62
2016-02-25T07:10:24.815Z,998.59
2016-02-25T07:11:24.816Z,998.59
2016-02-25T07:12:24.833Z,998.57
2016-02-25T07:13:24.850Z,998.58
2016-02-25T07:14:24.866Z,998.58
2016-02-25T07:15:24.868Z,998.59
2016-02-25T07:16:24.885Z,998.63
2016-02-25T07:17:24.904Z,998.63
2016-02-25T07:18:24.905Z,998.67
2016-02-25T07:19:24.923Z,998.66
2016-02-25T07:20:24.925Z,998.67
2016-02-25T07:21:24.945Z,998.69
2016-02-25T07:22:24.978Z,998.67
2016-02-25T07:23:24.981Z,998.7
2016-02-25T07:24:25.000Z,998.72
2016-02-25T07:25:25.001Z,998.74
2016-02-25T07:26:25.035Z,998.71
2016-02-25T07:27:25.038Z,998.75
2016-02-25T07:28:25.041Z,998.75
2016-02-25T07:29:25.059Z,998.76
2016-02-25T07:30:25.062Z,998.8
2016-02-25T07:31:25.080Z,998.79
2016-02-25T07:32:25.099Z,998.8
2016-02-25T07:33:25.117Z,998.76
2016-02-25T07:34:25.119Z,998.81
2016-02-25T07:35:25.138Z,998.8
2016-02-25T07:36:25.156Z,998.82
2016-02-25T07:37:25.174Z,998.82
2016-02-25T07:38:25.177Z,998.83
2016-02-25T07:39:25.196Z,998.88
2016-02-25T07:40:25.214Z,998.9
2016-02-25T07:41:25.217Z,998.87
2016-02-25T07:42:25.234Z,998.9
2016-02-25T07:43:25.253Z,998.88
2016-02-25T07:44:25.271Z,998.93
2016-02-25T07:45:25.274Z,998.94
2016-02-25T07:46:25.292Z,998.95
2016-02-25T07:47:25.311Z,998.94
2016-02-25T07:48:25.314Z,998.91
2016-02-25T07:49:25.331Z,998.96
2016-02-25T07:50:25.350Z,998.95
2016-02-25T07:51:25.368Z,998.94
2016-02-25T07:52:25.372Z,998.93
2016-02-25T07:53:25.389Z,998.92
2016-02-25T07:54:25.408Z,998.95
2016-02-25T07:55:25.425Z,998.98
2016-02-25T07:56:25.428Z,998.95
2016-02-25T07:57:25.447Z,998.94
2016-02-25T07:58:25.465Z,998.95
2016-02-25T07:59:25.484Z,998.94
2016-02-25T08:00:25.486Z,998.93
2016-02-25T08:01:25.505Z,998.94
2016-02-25T08:02:25.523Z,998.95
2016-02-25T08:03:25.526Z,998.97
2016-02-25T08:04:25.544Z,998.97
2016-02-25T08:05:25.563Z,998.95
2016-02-25T08:06:25.580Z,998.97
2016-02-25T08:07:25.599Z,998.99
2016-02-25T08:08:25.601Z,998.99
2016-02-25T08:09:25.620Z,998.97
2016-02-25T08:10:25.623Z,999.01
2016-02-25T08:11:25.641Z,999.01
2016-02-25T08:12:25.659Z,999
2016-02-25T08:13:25.678Z,998.97
2016-02-25T08:14:25.681Z,998.96
2016-02-25T08:15:25.698Z,998.98
2016-02-25T08:16:25.717Z,998.98
2016-02-25T08:17:25.734Z,998.98
2016-02-25T08:18:25.753Z,998.98
2016-02-25T08:19:25.756Z,998.97
2016-02-25T08:20:25.774Z,998.97
2016-02-25T08:21:25.793Z,998.99
2016-02-25T08:22:25.811Z,998.94
2016-02-25T08:23:25.814Z,998.99
2016-02-25T08:24:25.832Z,998.97
2016-02-25T08:25:25.850Z,998.98
2016-02-25T08:26:25.853Z,998.99
2016-02-25T08:27:25.872Z,998.99
2016-02-25T08:28:25.890Z,998.99
2016-02-25T08:29:25.908Z,999
2016-02-25T08:30:25.911Z,998.97
2016-02-25T08:31:25.929Z,999
2016-02-25T08:32:25.947Z,999.02
2016-02-25T08:33:25.965Z,998.98
2016-02-25T08:34:25.968Z,999.01
2016-02-25T08:35:25.987Z,999
2016-02-25T08:36:26.005Z,999
2016-02-25T08:37:26.008Z,998.97
2016-02-25T08:38:26.027Z,998.97
2016-02-25T08:39:26.044Z,998.95
2016-02-25T08:40:26.063Z,998.95
2016-02-25T08:41:26.082Z,998.93
2016-02-25T08:42:26.084Z,998.92
2016-02-25T08:43:26.101Z,998.95
2016-02-25T08:44:26.121Z,998.92
2016-02-25T08:45:26.139Z,998.93
2016-02-25T08:46:26.142Z,998.92
2016-02-25T08:47:26.160Z,998.94
2016-02-25T08:48:26.178Z,998.9
2016-02-25T08:49:26.181Z,998.93
2016-02-25T08:50:26.214Z,998.93
2016-02-25T08:51:26.217Z,998.94
2016-02-25T08:52:26.236Z,998.95
2016-02-25T08:53:26.253Z,998.97
2016-02-25T08:54:26.272Z,998.94
2016-02-25T08:55:26.275Z,998.93
2016-02-25T08:56:26.294Z,998.95
2016-02-25T08:57:26.297Z,998.98
2016-02-25T08:58:26.314Z,999.02
2016-02-25T08:59:26.333Z,999
2016-02-25T09:00:26.350Z,998.95
2016-02-25T09:01:26.353Z,998.95
2016-02-25T09:02:26.372Z,998.92
2016-02-25T09:03:26.390Z,998.97
2016-02-25T09:04:26.408Z,998.97
2016-02-25T09:05:26.411Z,998.97
2016-02-25T09:06:26.430Z,998.99
2016-02-25T09:07:26.449Z,998.99
2016-02-25T09:08:26.466Z,999
2016-02-25T09:09:26.484Z,998.98
2016-02-25T09:10:26.487Z,998.97
2016-02-25T09:11:26.505Z,998.99
2016-02-25T09:12:26.524Z,999
2016-02-25T09:13:26.542Z,998.98
2016-02-25T09:14:26.545Z,998.98
2016-02-25T09:15:26.562Z,999
2016-02-25T09:16:26.581Z,998.94
2016-02-25T09:17:26.600Z,998.99
2016-02-25T09:18:26.603Z,999
2016-02-25T09:19:26.621Z,998.97
2016-02-25T09:20:26.640Z,998.99
2016-02-25T09:21:26.657Z,998.99
2016-02-25T09:22:26.660Z,998.95
2016-02-25T09:23:26.679Z,998.99
2016-02-25T09:24:26.697Z,999
2016-02-25T09:25:26.715Z,999.04
2016-02-25T09:26:26.718Z,999
2016-02-25T09:27:26.736Z,999.07
2016-02-25T09:28:26.755Z,999.1
2016-02-25T09:29:26.773Z,999.1
2016-02-25T09:30:26.776Z,999.13
2016-02-25T09:31:26.794Z,999.12
2016-02-25T09:32:26.812Z,999.11
2016-02-25T09:33:26.831Z,999.09
2016-02-25T09:34:26.833Z,999.09
2016-02-25T09:35:26.853Z,999.12
2016-02-25T09:36:26.870Z,999.13
2016-02-25T09:37:26.889Z,999.12
2016-02-25T09:38:26.907Z,999.13
2016-02-25T09:39:26.910Z,999.14
2016-02-25T09:40:26.927Z,999.11
2016-02-25T09:41:26.946Z,999.11
2016-02-25T09:42:26.964Z,999.09
2016-02-25T09:43:26.967Z,999.12
2016-02-25T09:44:26.985Z,999.13
2016-02-25T09:45:27.004Z,999.13
2016-02-25T09:46:27.022Z,999.16
2016-02-25T09:47:27.041Z,999.16
2016-02-25T09:48:27.043Z,999.18
2016-02-25T09:49:27.062Z,999.16
2016-02-25T09:50:27.080Z,999.17
2016-02-25T09:51:27.098Z,999.13
2016-02-25T09:52:27.132Z,999.15
2016-02-25T09:53:27.119Z,999.16
2016-02-25T09:54:27.138Z,999.1
2016-02-25T09:55:27.156Z,999.12
2016-02-25T09:56:27.158Z,999.13
2016-02-25T09:57:27.177Z,999.11
2016-02-25T09:58:27.195Z,999.1
2016-02-25T09:59:27.214Z,999.14
2016-02-25T10:00:27.231Z,999.12
2016-02-25T10:01:27.250Z,999.11
2016-02-25T10:02:27.253Z,999.1
2016-02-25T10:03:27.271Z,999.14
2016-02-25T10:04:27.320Z,999.13
2016-02-25T10:05:27.308Z,999.15
2016-02-25T10:06:27.311Z,999.15
2016-02-25T10:07:27.328Z,999.13
2016-02-25T10:08:27.347Z,999.15
2016-02-25T10:09:27.366Z,999.18
2016-02-25T10:10:27.368Z,999.18
2016-02-25T10:11:27.386Z,999.18
2016-02-25T10:12:27.405Z,999.17
2016-02-25T10:13:27.422Z,999.23
2016-02-25T10:14:27.441Z,999.18
2016-02-25T10:15:27.460Z,999.22
2016-02-25T10:16:27.462Z,999.21
2016-02-25T10:17:27.480Z,999.22
2016-02-25T10:18:27.499Z,999.27
2016-02-25T10:19:27.502Z,999.2
2016-02-25T10:20:27.520Z,999.21
2016-02-25T10:21:27.538Z,999.17
2016-02-25T10:22:27.557Z,999.14
2016-02-25T10:23:27.590Z,999.2
2016-02-25T10:24:27.577Z,999.16
2016-02-25T10:25:27.596Z,999.16
2016-02-25T10:26:27.614Z,999.18
2016-02-25T10:27:27.632Z,999.14
2016-02-25T10:28:27.635Z,999.15
2016-02-25T10:29:27.653Z,999.14
2016-02-25T10:30:27.672Z,999.17
2016-02-25T10:31:27.690Z,999.14
2016-02-25T10:32:27.709Z,999.13
2016-02-25T10:33:27.711Z,999.14
2016-02-25T10:34:27.729Z,999.13
2016-02-25T10:35:27.748Z,999.17
2016-02-25T10:36:27.766Z,999.16
2016-02-25T10:37:27.784Z,999.16
2016-02-25T10:38:27.786Z,999.17
2016-02-25T10:39:27.805Z,999.16
2016-02-25T10:40:27.824Z,999.17
2016-02-25T10:41:27.842Z,999.15
2016-02-25T10:42:27.861Z,999.13
2016-02-25T10:43:27.879Z,999.14
2016-02-25T10:44:27.881Z,999.14
2016-02-25T10:45:27.900Z,999.17
2016-02-25T10:46:27.919Z,999.12
2016-02-25T10:47:27.936Z,999.13
2016-02-25T10:48:27.939Z,999.13
2016-02-25T10:49:27.957Z,999.15
2016-02-25T10:50:27.976Z,999.16
2016-02-25T10:51:27.994Z,999.15
2016-02-25T10:52:28.013Z,999.1
2016-02-25T10:53:28.030Z,999.13
2016-02-25T10:54:28.033Z,999.13
2016-02-25T10:55:28.051Z,999.09
2016-02-25T10:56:28.070Z,999.15
2016-02-25T10:57:28.088Z,999.1
2016-02-25T10:58:28.090Z,999.12
2016-02-25T10:59:28.110Z,999.12
2016-02-25T11:00:28.128Z,999.12
2016-02-25T11:01:28.146Z,999.08
2016-02-25T11:02:28.180Z,999.07
2016-02-25T11:03:28.182Z,999.09
2016-02-25T11:04:28.185Z,999.11
2016-02-25T11:05:28.392Z,999.11
2016-02-25T11:06:28.223Z,999.1
2016-02-25T11:07:28.241Z,999.07
2016-02-25T11:08:28.259Z,999.09
2016-02-25T11:09:28.278Z,999.08
2016-02-25T11:10:28.281Z,999.09
2016-02-25T11:11:28.299Z,999.02
2016-02-25T11:12:28.317Z,999.03
2016-02-25T11:13:28.335Z,999.04
2016-02-25T11:14:28.338Z,999.06
2016-02-25T11:15:28.356Z,999.02
2016-02-25T11:16:28.375Z,999.04
2016-02-25T11:17:28.393Z,999.05
2016-02-25T11:18:28.411Z,999
2016-02-25T11:19:28.414Z,999.03
2016-02-25T11:20:28.433Z,999.04
2016-02-25T11:21:28.451Z,999.01
2016-02-25T11:22:28.469Z,998.99
2016-02-25T11:23:28.488Z,998.96
2016-02-25T11:24:28.506Z,998.97
2016-02-25T11:25:28.508Z,998.97
2016-02-25T11:26:28.543Z,998.99
2016-02-25T11:27:28.545Z,998.99
2016-02-25T11:28:28.564Z,998.99
2016-02-25T11:29:28.582Z,998.98
2016-02-25T11:30:28.600Z,998.97
2016-02-25T11:31:28.618Z,998.94
2016-02-25T11:32:28.621Z,998.99
2016-02-25T11:33:28.639Z,998.99
2016-02-25T11:34:28.658Z,999
2016-02-25T11:35:28.676Z,998.97
2016-02-25T11:36:28.695Z,998.95
2016-02-25T11:37:28.713Z,999
2016-02-25T11:38:28.732Z,998.98
2016-02-25T11:39:28.735Z,998.97
2016-02-25T11:40:28.752Z,998.95
2016-02-25T11:41:28.771Z,998.97
2016-02-25T11:42:28.789Z,998.99
2016-02-25T11:43:28.807Z,998.98
2016-02-25T11:44:28.826Z,998.97
2016-02-25T11:45:28.844Z,998.97
2016-02-25T11:46:28.846Z,998.99
2016-02-25T11:47:28.865Z,998.98
2016-02-25T11:48:28.883Z,999.01
2016-02-25T11:49:28.901Z,998.98
2016-02-25T11:50:28.920Z,998.99
2016-02-25T11:51:28.938Z,998.97
2016-02-25T11:52:28.956Z,998.99
2016-02-25T11:53:28.959Z,999.05
2016-02-25T11:54:28.977Z,998.99
2016-02-25T11:55:28.995Z,999.04
2016-02-25T11:56:29.014Z,999
2016-02-25T11:57:29.033Z,998.99
2016-02-25T11:58:29.051Z,998.96
2016-02-25T11:59:29.069Z,998.98
2016-02-25T12:00:29.087Z,998.99
2016-02-25T12:01:29.090Z,999.05
2016-02-25T12:02:29.108Z,999.02
2016-02-25T12:03:29.127Z,999.05
2016-02-25T12:04:29.144Z,999.02
2016-02-25T12:05:29.164Z,999.02
2016-02-25T12:06:29.182Z,998.96
2016-02-25T12:07:29.200Z,998.95
2016-02-25T12:08:29.219Z,998.93
2016-02-25T12:09:29.236Z,998.96
2016-02-25T12:10:29.255Z,998.92
2016-02-25T12:11:29.258Z,998.92
2016-02-25T12:12:29.277Z,998.89
2016-02-25T12:13:29.294Z,998.88
2016-02-25T12:14:29.329Z,998.84
2016-02-25T12:15:29.332Z,998.87
2016-02-25T12:16:29.349Z,998.87
2016-02-25T12:17:29.368Z,998.87
2016-02-25T12:18:29.402Z,998.86
2016-02-25T12:19:29.420Z,998.86
2016-02-25T12:20:29.423Z,998.87
2016-02-25T12:21:29.440Z,998.93
2016-02-25T12:22:29.459Z,998.93
2016-02-25T12:23:29.478Z,998.94
2016-02-25T12:24:29.480Z,998.9
2016-02-25T12:25:29.498Z,998.86
2016-02-25T12:26:29.516Z,998.86
2016-02-25T12:27:29.534Z,998.84
2016-02-25T12:28:29.553Z,998.83
2016-02-25T12:29:29.572Z,998.89